sensor_id;sensor_type;location;lat;lon;timestamp;temperature;humidity
20057;DHT22;10189;49.546;7.906;2022-07-29T00:00:10;19.50;54.50
20057;DHT22;10189;49.546;7.906;2022-07-29T00:02:37;19.60;54.40
20057;DHT22;10189;49.546;7.906;2022-07-29T00:05:04;19.60;54.60
20057;DHT22;10189;49.546;7.906;2022-07-29T00:07:30;19.60;55.40
20057;DHT22;10189;49.546;7.906;2022-07-29T00:09:57;19.50;55.30
20057;DHT22;10189;49.546;7.906;2022-07-29T00:12:24;19.30;56.90
20057;DHT22;10189;49.546;7.906;2022-07-29T00:14:51;19.10;57.60
20057;DHT22;10189;49.546;7.906;2022-07-29T00:17:17;19.00;58.20
20057;DHT22;10189;49.546;7.906;2022-07-29T00:19:43;19.00;58.40
20057;DHT22;10189;49.546;7.906;2022-07-29T00:22:13;19.00;58.70
20057;DHT22;10189;49.546;7.906;2022-07-29T00:24:41;19.00;58.80
20057;DHT22;10189;49.546;7.906;2022-07-29T00:27:08;19.00;59.00
20057;DHT22;10189;49.546;7.906;2022-07-29T00:29:35;19.00;59.10
20057;DHT22;10189;49.546;7.906;2022-07-29T00:32:03;19.00;59.30
20057;DHT22;10189;49.546;7.906;2022-07-29T00:34:31;19.00;59.50
20057;DHT22;10189;49.546;7.906;2022-07-29T00:37:17;18.90;59.80
20057;DHT22;10189;49.546;7.906;2022-07-29T00:39:44;18.90;59.80
20057;DHT22;10189;49.546;7.906;2022-07-29T00:42:12;18.90;59.90
20057;DHT22;10189;49.546;7.906;2022-07-29T00:44:42;18.90;59.90
20057;DHT22;10189;49.546;7.906;2022-07-29T00:47:11;18.80;59.60
20057;DHT22;10189;49.546;7.906;2022-07-29T00:49:41;18.80;59.00
20057;DHT22;10189;49.546;7.906;2022-07-29T00:52:09;18.80;59.00
20057;DHT22;10189;49.546;7.906;2022-07-29T00:54:39;18.70;59.10
20057;DHT22;10189;49.546;7.906;2022-07-29T00:57:12;18.70;58.80
20057;DHT22;10189;49.546;7.906;2022-07-29T00:59:40;18.70;58.80
20057;DHT22;10189;49.546;7.906;2022-07-29T01:02:09;18.70;58.70
20057;DHT22;10189;49.546;7.906;2022-07-29T01:04:48;18.70;58.70
20057;DHT22;10189;49.546;7.906;2022-07-29T01:07:17;18.60;58.80
20057;DHT22;10189;49.546;7.906;2022-07-29T01:09:47;18.50;59.00
20057;DHT22;10189;49.546;7.906;2022-07-29T01:12:24;18.50;59.10
20057;DHT22;10189;49.546;7.906;2022-07-29T01:14:53;18.40;59.10
20057;DHT22;10189;49.546;7.906;2022-07-29T01:29:07;18.20;59.50
20057;DHT22;10189;49.546;7.906;2022-07-29T01:32:18;18.20;59.00
20057;DHT22;10189;49.546;7.906;2022-07-29T01:35:39;18.20;58.60
20057;DHT22;10189;49.546;7.906;2022-07-29T01:38:21;18.20;58.20
20057;DHT22;10189;49.546;7.906;2022-07-29T01:41:05;18.30;57.80
20057;DHT22;10189;49.546;7.906;2022-07-29T01:44:02;18.30;57.20
20057;DHT22;10189;49.546;7.906;2022-07-29T01:46:40;18.30;57.10
20057;DHT22;10189;49.546;7.906;2022-07-29T01:49:16;18.30;56.80
20057;DHT22;10189;49.546;7.906;2022-07-29T01:54:26;18.30;56.30
20057;DHT22;10189;49.546;7.906;2022-07-29T01:57:03;18.20;56.50
20057;DHT22;10189;49.546;7.906;2022-07-29T01:59:33;18.10;56.20
20057;DHT22;10189;49.546;7.906;2022-07-29T02:02:01;18.10;56.30
20057;DHT22;10189;49.546;7.906;2022-07-29T02:04:28;18.00;56.40
20057;DHT22;10189;49.546;7.906;2022-07-29T02:06:59;18.00;56.40
20057;DHT22;10189;49.546;7.906;2022-07-29T02:09:30;18.00;56.30
20057;DHT22;10189;49.546;7.906;2022-07-29T02:11:59;18.00;56.20
20057;DHT22;10189;49.546;7.906;2022-07-29T02:14:29;17.90;56.80
20057;DHT22;10189;49.546;7.906;2022-07-29T02:17:00;17.80;56.20
20057;DHT22;10189;49.546;7.906;2022-07-29T02:19:29;17.80;56.80
20057;DHT22;10189;49.546;7.906;2022-07-29T02:21:58;17.70;57.20
20057;DHT22;10189;49.546;7.906;2022-07-29T02:24:26;17.60;57.20
20057;DHT22;10189;49.546;7.906;2022-07-29T02:26:55;17.60;57.80
20057;DHT22;10189;49.546;7.906;2022-07-29T02:29:25;17.60;57.80
20057;DHT22;10189;49.546;7.906;2022-07-29T02:31:55;17.50;57.60
20057;DHT22;10189;49.546;7.906;2022-07-29T02:34:25;17.50;57.90
20057;DHT22;10189;49.546;7.906;2022-07-29T02:36:52;17.40;57.70
20057;DHT22;10189;49.546;7.906;2022-07-29T02:39:21;17.30;57.90
20057;DHT22;10189;49.546;7.906;2022-07-29T02:41:59;17.30;58.50
20057;DHT22;10189;49.546;7.906;2022-07-29T02:44:29;17.30;59.10
20057;DHT22;10189;49.546;7.906;2022-07-29T02:47:04;17.20;59.20
20057;DHT22;10189;49.546;7.906;2022-07-29T02:50:11;17.20;59.50
20057;DHT22;10189;49.546;7.906;2022-07-29T02:53:18;17.20;59.40
20057;DHT22;10189;49.546;7.906;2022-07-29T02:56:06;17.10;59.70
20057;DHT22;10189;49.546;7.906;2022-07-29T02:58:42;17.00;59.70
20057;DHT22;10189;49.546;7.906;2022-07-29T03:01:21;17.00;60.10
20057;DHT22;10189;49.546;7.906;2022-07-29T03:03:50;16.90;60.50
20057;DHT22;10189;49.546;7.906;2022-07-29T03:06:20;16.80;60.80
20057;DHT22;10189;49.546;7.906;2022-07-29T03:08:49;16.70;61.00
20057;DHT22;10189;49.546;7.906;2022-07-29T03:11:17;16.70;61.10
20057;DHT22;10189;49.546;7.906;2022-07-29T03:13:44;16.60;61.50
20057;DHT22;10189;49.546;7.906;2022-07-29T03:16:11;16.60;62.90
20057;DHT22;10189;49.546;7.906;2022-07-29T03:18:38;16.60;64.90
20057;DHT22;10189;49.546;7.906;2022-07-29T03:21:05;16.50;67.10
20057;DHT22;10189;49.546;7.906;2022-07-29T03:23:31;16.40;67.40
20057;DHT22;10189;49.546;7.906;2022-07-29T03:25:57;16.40;67.20
20057;DHT22;10189;49.546;7.906;2022-07-29T03:28:23;16.30;65.70
20057;DHT22;10189;49.546;7.906;2022-07-29T03:30:50;16.30;64.90
20057;DHT22;10189;49.546;7.906;2022-07-29T03:33:16;16.30;64.80
20057;DHT22;10189;49.546;7.906;2022-07-29T03:35:42;16.30;64.80
20057;DHT22;10189;49.546;7.906;2022-07-29T03:38:08;16.40;64.80
20057;DHT22;10189;49.546;7.906;2022-07-29T03:40:38;16.30;65.20
20057;DHT22;10189;49.546;7.906;2022-07-29T03:43:11;16.20;65.80
20057;DHT22;10189;49.546;7.906;2022-07-29T03:45:43;16.10;65.90
20057;DHT22;10189;49.546;7.906;2022-07-29T03:48:15;16.00;66.70
20057;DHT22;10189;49.546;7.906;2022-07-29T03:50:43;15.90;67.40
20057;DHT22;10189;49.546;7.906;2022-07-29T03:53:10;15.90;67.50
20057;DHT22;10189;49.546;7.906;2022-07-29T03:55:41;15.90;69.00
20057;DHT22;10189;49.546;7.906;2022-07-29T03:58:11;15.80;69.00
20057;DHT22;10189;49.546;7.906;2022-07-29T04:00:39;15.80;67.70
20057;DHT22;10189;49.546;7.906;2022-07-29T04:03:08;15.80;67.10
20057;DHT22;10189;49.546;7.906;2022-07-29T04:05:35;15.80;67.70
20057;DHT22;10189;49.546;7.906;2022-07-29T04:08:01;15.70;68.70
20057;DHT22;10189;49.546;7.906;2022-07-29T04:10:27;15.70;68.70
20057;DHT22;10189;49.546;7.906;2022-07-29T04:12:53;15.70;68.80
20057;DHT22;10189;49.546;7.906;2022-07-29T04:15:19;15.80;68.40
20057;DHT22;10189;49.546;7.906;2022-07-29T04:17:45;15.90;68.10
20057;DHT22;10189;49.546;7.906;2022-07-29T04:20:11;15.90;67.90
20057;DHT22;10189;49.546;7.906;2022-07-29T04:22:41;15.90;67.60
20057;DHT22;10189;49.546;7.906;2022-07-29T04:25:08;15.90;67.60
20057;DHT22;10189;49.546;7.906;2022-07-29T04:27:34;16.00;67.80
20057;DHT22;10189;49.546;7.906;2022-07-29T04:30:00;16.00;67.50
20057;DHT22;10189;49.546;7.906;2022-07-29T04:32:27;16.00;67.40
20057;DHT22;10189;49.546;7.906;2022-07-29T04:34:53;16.00;67.10
20057;DHT22;10189;49.546;7.906;2022-07-29T04:37:19;16.00;67.10
20057;DHT22;10189;49.546;7.906;2022-07-29T04:39:44;16.10;66.40
20057;DHT22;10189;49.546;7.906;2022-07-29T04:42:10;16.20;65.70
20057;DHT22;10189;49.546;7.906;2022-07-29T04:44:36;16.30;65.30
20057;DHT22;10189;49.546;7.906;2022-07-29T04:47:02;16.40;65.30
20057;DHT22;10189;49.546;7.906;2022-07-29T04:49:29;16.50;66.70
20057;DHT22;10189;49.546;7.906;2022-07-29T04:51:55;16.70;66.20
20057;DHT22;10189;49.546;7.906;2022-07-29T04:54:21;16.80;65.90
20057;DHT22;10189;49.546;7.906;2022-07-29T04:56:47;16.90;65.30
20057;DHT22;10189;49.546;7.906;2022-07-29T04:59:12;16.80;64.60
20057;DHT22;10189;49.546;7.906;2022-07-29T05:01:38;16.80;64.70
20057;DHT22;10189;49.546;7.906;2022-07-29T05:04:04;16.80;63.90
20057;DHT22;10189;49.546;7.906;2022-07-29T05:06:30;16.70;63.10
20057;DHT22;10189;49.546;7.906;2022-07-29T05:08:56;16.60;63.90
20057;DHT22;10189;49.546;7.906;2022-07-29T05:11:22;16.70;64.90
20057;DHT22;10189;49.546;7.906;2022-07-29T05:13:48;16.80;64.70
20057;DHT22;10189;49.546;7.906;2022-07-29T05:16:13;16.80;64.20
20057;DHT22;10189;49.546;7.906;2022-07-29T05:18:40;16.90;64.90
20057;DHT22;10189;49.546;7.906;2022-07-29T05:21:06;16.90;64.60
20057;DHT22;10189;49.546;7.906;2022-07-29T05:23:33;16.90;65.10
20057;DHT22;10189;49.546;7.906;2022-07-29T05:25:59;17.00;65.40
20057;DHT22;10189;49.546;7.906;2022-07-29T05:28:24;17.10;67.10
20057;DHT22;10189;49.546;7.906;2022-07-29T05:30:50;17.20;68.40
20057;DHT22;10189;49.546;7.906;2022-07-29T05:33:16;17.20;68.90
20057;DHT22;10189;49.546;7.906;2022-07-29T05:35:42;17.10;70.00
20057;DHT22;10189;49.546;7.906;2022-07-29T05:38:08;17.10;70.00
20057;DHT22;10189;49.546;7.906;2022-07-29T05:40:34;17.20;69.90
20057;DHT22;10189;49.546;7.906;2022-07-29T05:43:00;17.30;69.20
20057;DHT22;10189;49.546;7.906;2022-07-29T05:45:25;17.50;68.50
20057;DHT22;10189;49.546;7.906;2022-07-29T05:47:52;17.70;67.80
20057;DHT22;10189;49.546;7.906;2022-07-29T05:50:18;17.90;68.00
20057;DHT22;10189;49.546;7.906;2022-07-29T05:52:44;18.00;67.30
20057;DHT22;10189;49.546;7.906;2022-07-29T05:55:10;18.00;67.60
20057;DHT22;10189;49.546;7.906;2022-07-29T05:57:36;18.20;67.30
20057;DHT22;10189;49.546;7.906;2022-07-29T06:00:03;18.40;66.20
20057;DHT22;10189;49.546;7.906;2022-07-29T06:02:37;18.60;65.30
20057;DHT22;10189;49.546;7.906;2022-07-29T06:05:04;18.70;63.50
20057;DHT22;10189;49.546;7.906;2022-07-29T06:07:30;18.90;62.40
20057;DHT22;10189;49.546;7.906;2022-07-29T06:09:56;19.00;62.80
20057;DHT22;10189;49.546;7.906;2022-07-29T06:12:22;18.90;62.50
20057;DHT22;10189;49.546;7.906;2022-07-29T06:14:47;18.60;63.30
20057;DHT22;10189;49.546;7.906;2022-07-29T06:17:13;18.30;64.00
20057;DHT22;10189;49.546;7.906;2022-07-29T06:19:41;18.10;65.40
20057;DHT22;10189;49.546;7.906;2022-07-29T06:22:07;18.00;66.10
20057;DHT22;10189;49.546;7.906;2022-07-29T06:24:33;17.80;67.10
20057;DHT22;10189;49.546;7.906;2022-07-29T06:26:59;17.70;67.20
20057;DHT22;10189;49.546;7.906;2022-07-29T06:29:25;17.80;67.00
20057;DHT22;10189;49.546;7.906;2022-07-29T06:31:51;18.00;65.90
20057;DHT22;10189;49.546;7.906;2022-07-29T06:34:17;18.00;65.90
20057;DHT22;10189;49.546;7.906;2022-07-29T06:36:42;18.10;66.60
20057;DHT22;10189;49.546;7.906;2022-07-29T06:39:09;18.40;64.70
20057;DHT22;10189;49.546;7.906;2022-07-29T06:41:35;18.70;63.70
20057;DHT22;10189;49.546;7.906;2022-07-29T06:44:08;18.80;63.00
20057;DHT22;10189;49.546;7.906;2022-07-29T06:46:34;18.90;61.70
20057;DHT22;10189;49.546;7.906;2022-07-29T06:49:00;18.90;62.00
20057;DHT22;10189;49.546;7.906;2022-07-29T06:51:27;19.20;60.50
20057;DHT22;10189;49.546;7.906;2022-07-29T06:53:53;19.50;60.00
20057;DHT22;10189;49.546;7.906;2022-07-29T06:56:19;19.70;58.60
20057;DHT22;10189;49.546;7.906;2022-07-29T06:58:45;20.00;58.00
20057;DHT22;10189;49.546;7.906;2022-07-29T07:01:11;20.20;57.60
20057;DHT22;10189;49.546;7.906;2022-07-29T07:03:37;20.30;56.40
20057;DHT22;10189;49.546;7.906;2022-07-29T07:06:03;20.40;56.70
20057;DHT22;10189;49.546;7.906;2022-07-29T07:08:29;20.50;57.40
20057;DHT22;10189;49.546;7.906;2022-07-29T07:10:55;20.90;55.70
20057;DHT22;10189;49.546;7.906;2022-07-29T07:13:23;21.30;53.90
20057;DHT22;10189;49.546;7.906;2022-07-29T07:15:49;21.60;53.00
20057;DHT22;10189;49.546;7.906;2022-07-29T07:18:16;21.80;50.50
20057;DHT22;10189;49.546;7.906;2022-07-29T07:20:42;21.80;51.40
20057;DHT22;10189;49.546;7.906;2022-07-29T07:23:08;21.80;50.30
20057;DHT22;10189;49.546;7.906;2022-07-29T07:25:34;21.80;50.30
20057;DHT22;10189;49.546;7.906;2022-07-29T07:28:00;21.70;49.20
20057;DHT22;10189;49.546;7.906;2022-07-29T07:30:26;21.70;49.70
20057;DHT22;10189;49.546;7.906;2022-07-29T07:32:53;21.70;50.40
20057;DHT22;10189;49.546;7.906;2022-07-29T07:35:19;21.70;49.90
20057;DHT22;10189;49.546;7.906;2022-07-29T07:37:45;21.80;50.50
20057;DHT22;10189;49.546;7.906;2022-07-29T07:40:12;21.90;49.40
20057;DHT22;10189;49.546;7.906;2022-07-29T07:42:39;22.00;48.50
20057;DHT22;10189;49.546;7.906;2022-07-29T07:45:07;22.10;47.10
20057;DHT22;10189;49.546;7.906;2022-07-29T07:47:36;22.30;49.30
20057;DHT22;10189;49.546;7.906;2022-07-29T07:50:07;22.50;48.10
20057;DHT22;10189;49.546;7.906;2022-07-29T07:52:50;22.60;47.50
20057;DHT22;10189;49.546;7.906;2022-07-29T07:55:18;22.10;48.40
20057;DHT22;10189;49.546;7.906;2022-07-29T07:57:45;22.10;48.90
20057;DHT22;10189;49.546;7.906;2022-07-29T08:00:13;22.10;48.60
20057;DHT22;10189;49.546;7.906;2022-07-29T08:02:40;22.20;49.20
20057;DHT22;10189;49.546;7.906;2022-07-29T08:05:09;22.20;49.00
20057;DHT22;10189;49.546;7.906;2022-07-29T08:07:35;22.30;49.00
20057;DHT22;10189;49.546;7.906;2022-07-29T08:10:02;22.30;49.10
20057;DHT22;10189;49.546;7.906;2022-07-29T08:12:29;22.40;49.00
20057;DHT22;10189;49.546;7.906;2022-07-29T08:14:55;22.50;49.00
20057;DHT22;10189;49.546;7.906;2022-07-29T08:17:21;22.50;49.10
20057;DHT22;10189;49.546;7.906;2022-07-29T08:19:47;22.50;48.50
20057;DHT22;10189;49.546;7.906;2022-07-29T08:22:14;22.50;49.40
20057;DHT22;10189;49.546;7.906;2022-07-29T08:24:40;22.70;48.90
20057;DHT22;10189;49.546;7.906;2022-07-29T08:27:12;22.90;49.40
20057;DHT22;10189;49.546;7.906;2022-07-29T08:29:39;23.10;49.00
20057;DHT22;10189;49.546;7.906;2022-07-29T08:32:05;23.10;49.00
20057;DHT22;10189;49.546;7.906;2022-07-29T08:34:32;23.10;49.10
20057;DHT22;10189;49.546;7.906;2022-07-29T08:36:58;23.40;48.60
20057;DHT22;10189;49.546;7.906;2022-07-29T08:39:24;23.50;48.00
20057;DHT22;10189;49.546;7.906;2022-07-29T08:41:51;23.50;48.50
20057;DHT22;10189;49.546;7.906;2022-07-29T08:44:20;23.50;48.00
20057;DHT22;10189;49.546;7.906;2022-07-29T08:46:48;23.70;47.80
20057;DHT22;10189;49.546;7.906;2022-07-29T08:49:15;23.60;48.20
20057;DHT22;10189;49.546;7.906;2022-07-29T08:51:42;23.70;47.90
20057;DHT22;10189;49.546;7.906;2022-07-29T08:54:09;23.90;46.90
20057;DHT22;10189;49.546;7.906;2022-07-29T08:56:38;24.20;47.70
20057;DHT22;10189;49.546;7.906;2022-07-29T08:59:06;24.50;47.60
20057;DHT22;10189;49.546;7.906;2022-07-29T09:01:37;24.80;45.80
20057;DHT22;10189;49.546;7.906;2022-07-29T09:04:10;24.90;46.60
20057;DHT22;10189;49.546;7.906;2022-07-29T09:06:39;24.90;46.70
20057;DHT22;10189;49.546;7.906;2022-07-29T09:09:08;24.60;47.70
20057;DHT22;10189;49.546;7.906;2022-07-29T09:11:34;24.60;48.00
20057;DHT22;10189;49.546;7.906;2022-07-29T09:14:01;24.70;48.30
20057;DHT22;10189;49.546;7.906;2022-07-29T09:16:44;25.00;48.90
20057;DHT22;10189;49.546;7.906;2022-07-29T09:19:31;25.30;47.60
20057;DHT22;10189;49.546;7.906;2022-07-29T09:22:04;25.50;46.90
20057;DHT22;10189;49.546;7.906;2022-07-29T09:27:23;25.80;47.00
20057;DHT22;10189;49.546;7.906;2022-07-29T09:30:02;25.70;46.80
20057;DHT22;10189;49.546;7.906;2022-07-29T09:32:29;25.50;46.40
20057;DHT22;10189;49.546;7.906;2022-07-29T09:37:47;25.80;46.70
20057;DHT22;10189;49.546;7.906;2022-07-29T09:40:19;26.10;46.90
20057;DHT22;10189;49.546;7.906;2022-07-29T09:42:50;26.40;45.90
20057;DHT22;10189;49.546;7.906;2022-07-29T09:45:28;26.20;45.20
20057;DHT22;10189;49.546;7.906;2022-07-29T09:47:56;26.10;46.90
20057;DHT22;10189;49.546;7.906;2022-07-29T09:50:39;26.20;45.90
20057;DHT22;10189;49.546;7.906;2022-07-29T09:53:06;26.20;45.70
20057;DHT22;10189;49.546;7.906;2022-07-29T09:55:32;26.10;46.90
20057;DHT22;10189;49.546;7.906;2022-07-29T09:58:17;26.50;46.10
20057;DHT22;10189;49.546;7.906;2022-07-29T10:00:45;26.90;44.90
20057;DHT22;10189;49.546;7.906;2022-07-29T10:03:13;27.30;44.20
20057;DHT22;10189;49.546;7.906;2022-07-29T10:05:41;27.20;43.50
20057;DHT22;10189;49.546;7.906;2022-07-29T10:08:10;26.90;43.30
20057;DHT22;10189;49.546;7.906;2022-07-29T10:10:40;26.70;45.10
20057;DHT22;10189;49.546;7.906;2022-07-29T10:13:10;26.80;44.40
20057;DHT22;10189;49.546;7.906;2022-07-29T10:15:40;26.90;44.30
20057;DHT22;10189;49.546;7.906;2022-07-29T10:18:10;26.90;45.00
20057;DHT22;10189;49.546;7.906;2022-07-29T10:20:38;26.90;44.30
20057;DHT22;10189;49.546;7.906;2022-07-29T10:23:05;27.00;44.50
20057;DHT22;10189;49.546;7.906;2022-07-29T10:25:31;26.80;44.40
20057;DHT22;10189;49.546;7.906;2022-07-29T10:27:58;26.70;45.60
20057;DHT22;10189;49.546;7.906;2022-07-29T10:30:25;26.70;45.70
20057;DHT22;10189;49.546;7.906;2022-07-29T10:35:48;26.80;46.50
20057;DHT22;10189;49.546;7.906;2022-07-29T10:41:40;27.30;45.40
20057;DHT22;10189;49.546;7.906;2022-07-29T10:44:22;27.40;44.30
20057;DHT22;10189;49.546;7.906;2022-07-29T10:46:51;27.50;43.50
20057;DHT22;10189;49.546;7.906;2022-07-29T10:49:26;27.70;44.10
20057;DHT22;10189;49.546;7.906;2022-07-29T10:52:08;27.90;44.10
20057;DHT22;10189;49.546;7.906;2022-07-29T10:54:48;28.20;42.90
20057;DHT22;10189;49.546;7.906;2022-07-29T11:05:05;27.80;42.80
20057;DHT22;10189;49.546;7.906;2022-07-29T11:07:35;27.50;43.40
20057;DHT22;10189;49.546;7.906;2022-07-29T11:20:40;27.30;44.10
20057;DHT22;10189;49.546;7.906;2022-07-29T11:23:31;27.30;43.60
20057;DHT22;10189;49.546;7.906;2022-07-29T11:26:20;27.00;44.00
20057;DHT22;10189;49.546;7.906;2022-07-29T11:28:51;27.10;44.40
20057;DHT22;10189;49.546;7.906;2022-07-29T11:31:40;27.30;45.50
20057;DHT22;10189;49.546;7.906;2022-07-29T11:34:28;27.50;43.90
20057;DHT22;10189;49.546;7.906;2022-07-29T11:39:38;27.70;43.80
20057;DHT22;10189;49.546;7.906;2022-07-29T11:47:23;28.30;42.40
20057;DHT22;10189;49.546;7.906;2022-07-29T11:49:51;28.60;42.20
20057;DHT22;10189;49.546;7.906;2022-07-29T11:52:18;29.10;40.90
20057;DHT22;10189;49.546;7.906;2022-07-29T11:54:48;29.30;39.20
20057;DHT22;10189;49.546;7.906;2022-07-29T11:57:20;29.60;39.70
20057;DHT22;10189;49.546;7.906;2022-07-29T11:59:46;29.80;39.40
20057;DHT22;10189;49.546;7.906;2022-07-29T12:02:14;30.00;39.30
20057;DHT22;10189;49.546;7.906;2022-07-29T12:04:56;30.10;39.30
20057;DHT22;10189;49.546;7.906;2022-07-29T12:07:32;30.30;37.80
20057;DHT22;10189;49.546;7.906;2022-07-29T12:09:59;30.30;38.00
20057;DHT22;10189;49.546;7.906;2022-07-29T12:12:26;30.20;38.20
20057;DHT22;10189;49.546;7.906;2022-07-29T12:14:52;30.20;38.50
20057;DHT22;10189;49.546;7.906;2022-07-29T12:17:32;30.10;36.50
20057;DHT22;10189;49.546;7.906;2022-07-29T12:20:02;30.20;37.10
20057;DHT22;10189;49.546;7.906;2022-07-29T12:22:38;30.40;37.80
20057;DHT22;10189;49.546;7.906;2022-07-29T12:25:13;30.80;37.30
20057;DHT22;10189;49.546;7.906;2022-07-29T12:27:41;30.90;36.50
20057;DHT22;10189;49.546;7.906;2022-07-29T12:30:11;30.90;35.90
20057;DHT22;10189;49.546;7.906;2022-07-29T12:32:40;31.00;35.00
20057;DHT22;10189;49.546;7.906;2022-07-29T12:35:17;31.10;34.60
20057;DHT22;10189;49.546;7.906;2022-07-29T12:37:46;31.30;33.40
20057;DHT22;10189;49.546;7.906;2022-07-29T12:40:16;31.30;34.70
20057;DHT22;10189;49.546;7.906;2022-07-29T12:45:46;31.20;34.10
20057;DHT22;10189;49.546;7.906;2022-07-29T12:48:16;31.10;33.60
20057;DHT22;10189;49.546;7.906;2022-07-29T12:50:58;31.00;34.10
20057;DHT22;10189;49.546;7.906;2022-07-29T12:53:25;30.80;34.30
20057;DHT22;10189;49.546;7.906;2022-07-29T12:55:53;30.50;35.80
20057;DHT22;10189;49.546;7.906;2022-07-29T12:58:34;30.30;33.70
20057;DHT22;10189;49.546;7.906;2022-07-29T13:01:05;30.20;34.90
20057;DHT22;10189;49.546;7.906;2022-07-29T13:03:54;30.50;34.80
20057;DHT22;10189;49.546;7.906;2022-07-29T13:09:11;30.30;34.60
20057;DHT22;10189;49.546;7.906;2022-07-29T13:14:11;30.20;34.40
20057;DHT22;10189;49.546;7.906;2022-07-29T13:22:24;29.70;35.80
20057;DHT22;10189;49.546;7.906;2022-07-29T13:24:58;29.90;35.60
20057;DHT22;10189;49.546;7.906;2022-07-29T13:27:32;29.70;35.10
20057;DHT22;10189;49.546;7.906;2022-07-29T13:30:00;29.90;35.90
20057;DHT22;10189;49.546;7.906;2022-07-29T13:32:29;30.20;35.10
20057;DHT22;10189;49.546;7.906;2022-07-29T13:34:58;30.60;33.40
20057;DHT22;10189;49.546;7.906;2022-07-29T13:37:26;30.80;34.10
20057;DHT22;10189;49.546;7.906;2022-07-29T13:39:55;30.80;33.40
20057;DHT22;10189;49.546;7.906;2022-07-29T13:42:22;30.60;34.10
20057;DHT22;10189;49.546;7.906;2022-07-29T13:44:49;30.50;33.20
20057;DHT22;10189;49.546;7.906;2022-07-29T13:47:20;30.40;32.40
20057;DHT22;10189;49.546;7.906;2022-07-29T13:49:47;30.00;34.10
20057;DHT22;10189;49.546;7.906;2022-07-29T13:52:13;29.80;33.50
20057;DHT22;10189;49.546;7.906;2022-07-29T13:54:40;29.60;34.10
20057;DHT22;10189;49.546;7.906;2022-07-29T13:57:05;29.30;33.70
20057;DHT22;10189;49.546;7.906;2022-07-29T13:59:33;29.30;34.20
20057;DHT22;10189;49.546;7.906;2022-07-29T14:01:59;29.70;34.80
20057;DHT22;10189;49.546;7.906;2022-07-29T14:04:25;29.40;34.20
20057;DHT22;10189;49.546;7.906;2022-07-29T14:06:51;29.50;34.50
20057;DHT22;10189;49.546;7.906;2022-07-29T14:09:17;29.40;33.60
20057;DHT22;10189;49.546;7.906;2022-07-29T14:11:43;29.40;34.10
20057;DHT22;10189;49.546;7.906;2022-07-29T14:14:09;29.40;34.90
20057;DHT22;10189;49.546;7.906;2022-07-29T14:16:36;29.20;33.20
20057;DHT22;10189;49.546;7.906;2022-07-29T14:19:02;29.20;34.70
20057;DHT22;10189;49.546;7.906;2022-07-29T14:21:28;29.20;34.60
20057;DHT22;10189;49.546;7.906;2022-07-29T14:23:55;29.30;34.20
20057;DHT22;10189;49.546;7.906;2022-07-29T14:26:21;29.40;33.70
20057;DHT22;10189;49.546;7.906;2022-07-29T14:28:48;29.40;33.90
20057;DHT22;10189;49.546;7.906;2022-07-29T14:31:15;29.40;33.10
20057;DHT22;10189;49.546;7.906;2022-07-29T14:33:42;29.40;33.70
20057;DHT22;10189;49.546;7.906;2022-07-29T14:36:08;29.70;33.70
20057;DHT22;10189;49.546;7.906;2022-07-29T14:38:35;29.70;32.80
20057;DHT22;10189;49.546;7.906;2022-07-29T14:41:03;29.90;32.70
20057;DHT22;10189;49.546;7.906;2022-07-29T14:43:29;30.00;33.20
20057;DHT22;10189;49.546;7.906;2022-07-29T14:45:56;30.00;32.40
20057;DHT22;10189;49.546;7.906;2022-07-29T14:48:22;30.20;32.30
20057;DHT22;10189;49.546;7.906;2022-07-29T14:50:48;30.10;32.50
20057;DHT22;10189;49.546;7.906;2022-07-29T14:53:14;30.10;31.00
20057;DHT22;10189;49.546;7.906;2022-07-29T14:55:40;30.00;32.60
20057;DHT22;10189;49.546;7.906;2022-07-29T14:58:09;29.70;31.50
20057;DHT22;10189;49.546;7.906;2022-07-29T15:00:35;29.40;33.10
20057;DHT22;10189;49.546;7.906;2022-07-29T15:03:03;29.40;32.40
20057;DHT22;10189;49.546;7.906;2022-07-29T15:05:30;29.30;32.50
20057;DHT22;10189;49.546;7.906;2022-07-29T15:07:57;29.20;32.50
20057;DHT22;10189;49.546;7.906;2022-07-29T15:10:24;29.20;31.70
20057;DHT22;10189;49.546;7.906;2022-07-29T15:12:53;29.20;31.90
20057;DHT22;10189;49.546;7.906;2022-07-29T15:15:20;29.10;33.60
20057;DHT22;10189;49.546;7.906;2022-07-29T15:17:46;29.10;32.90
20057;DHT22;10189;49.546;7.906;2022-07-29T15:20:12;29.00;32.30
20057;DHT22;10189;49.546;7.906;2022-07-29T15:22:39;28.90;32.60
20057;DHT22;10189;49.546;7.906;2022-07-29T15:25:08;28.70;32.50
20057;DHT22;10189;49.546;7.906;2022-07-29T15:27:35;28.30;32.50
20057;DHT22;10189;49.546;7.906;2022-07-29T15:30:01;28.20;32.60
20057;DHT22;10189;49.546;7.906;2022-07-29T15:32:27;28.20;33.20
20057;DHT22;10189;49.546;7.906;2022-07-29T15:34:53;28.40;34.20
20057;DHT22;10189;49.546;7.906;2022-07-29T15:37:19;28.60;33.40
20057;DHT22;10189;49.546;7.906;2022-07-29T15:39:45;28.70;32.20
20057;DHT22;10189;49.546;7.906;2022-07-29T15:42:10;28.70;32.00
20057;DHT22;10189;49.546;7.906;2022-07-29T15:44:36;28.70;32.40
20057;DHT22;10189;49.546;7.906;2022-07-29T15:47:02;28.60;32.20
20057;DHT22;10189;49.546;7.906;2022-07-29T15:49:33;28.60;32.40
20057;DHT22;10189;49.546;7.906;2022-07-29T15:52:05;28.60;31.60
20057;DHT22;10189;49.546;7.906;2022-07-29T15:54:35;28.50;32.20
20057;DHT22;10189;49.546;7.906;2022-07-29T15:57:03;28.50;32.30
20057;DHT22;10189;49.546;7.906;2022-07-29T15:59:30;28.40;32.30
20057;DHT22;10189;49.546;7.906;2022-07-29T16:01:57;28.50;32.20
20057;DHT22;10189;49.546;7.906;2022-07-29T16:04:23;28.70;31.70
20057;DHT22;10189;49.546;7.906;2022-07-29T16:06:49;28.90;31.30
20057;DHT22;10189;49.546;7.906;2022-07-29T16:09:16;29.20;31.10
20057;DHT22;10189;49.546;7.906;2022-07-29T16:11:43;29.50;30.90
20057;DHT22;10189;49.546;7.906;2022-07-29T16:14:11;29.70;30.00
20057;DHT22;10189;49.546;7.906;2022-07-29T16:16:37;30.10;29.10
20057;DHT22;10189;49.546;7.906;2022-07-29T16:19:04;30.20;29.00
20057;DHT22;10189;49.546;7.906;2022-07-29T16:21:31;30.60;29.20
20057;DHT22;10189;49.546;7.906;2022-07-29T16:23:58;30.90;28.20
20057;DHT22;10189;49.546;7.906;2022-07-29T16:26:25;31.10;27.80
20057;DHT22;10189;49.546;7.906;2022-07-29T16:28:52;31.40;27.70
20057;DHT22;10189;49.546;7.906;2022-07-29T16:31:18;31.40;28.00
20057;DHT22;10189;49.546;7.906;2022-07-29T16:33:48;31.70;27.30
20057;DHT22;10189;49.546;7.906;2022-07-29T16:36:15;32.20;27.70
20057;DHT22;10189;49.546;7.906;2022-07-29T16:38:41;32.70;27.00
20057;DHT22;10189;49.546;7.906;2022-07-29T16:41:07;32.80;26.20
20057;DHT22;10189;49.546;7.906;2022-07-29T16:43:33;32.70;26.60
20057;DHT22;10189;49.546;7.906;2022-07-29T16:45:59;32.40;26.10
20057;DHT22;10189;49.546;7.906;2022-07-29T16:48:25;32.40;26.60